Etusivu
METAR-TAF:

METAR-TAF

Lentoasemat :

Stokmarknes, Norja

Stokmarknesin lentoasema

Leveyspiiri: 68-35N, Pituuspiiri: 015-01E, korkeus merenpinnasta: 0 m

Tämänhetkinen sää

Tämä raportti tehtiin 10 minuuttia sitten, kello 04.50 UTC
Tuuli 7 kn pohjoisesta/koillisesta
Lämpötila 6°C
Kosteus 70%
Ilmanpaine 1016 hPa
Näkyvyys 10 km tai enemmän
Muutamia pilviä 2000 ft:n korkeudessa
Hajanaisia pilviä 3500 ft:n korkeudessa
sadekuuroja näköpiirissä

METAR: ENSK 230450Z 02007KT 9999 VCSH FEW020 SCT035 06/01 Q1016

Aika: 07:00 (05:00 UTC)


TAF: puuttuu

Säähavainnot ja -ennusteet yli 4000 lentoasemalta (METAR- ja TAF-raportit).

Käytössä olevat sääasemat on merkitty karttaan keltaisilla ja punaisilla pisteillä.

Aseta hiiri pisteen päälle nähdäksesi sääaseman nimen.

Klikkaa sitten nähdäksesi säähavainnot ja -ennusteet.

Kartan vaihtaminen: klikkaa mustalla rastilla varustettuja vihreitä pisteitä, niin voit zoomata sisään; viivalla varustettua vihreää pistettä, niin voit zoomata ulos tai vihreitä nuolia, niin pääset viereisille kartoille.


METAR-TAF: